Time;durP1;ratioP1;P1;durP2;ratioP2;P2;SDS_P1;SDS_P2;PMS_P1;PMS_P2;Temp;Humidity;BMP_temperature;BMP_pressure;BME280_temperature;BME280_humidity;BME280_pressure;Samples;Min_cycle;Max_cycle;Signal;HPM_P1;HPM_P2
2021/05/05 00:00:57;;;;;;;5.10;3.27;;;;;;;4.40;66.01;100849.00;1789904;80;20943;-40
2021/05/05 00:03:25;;;;;;;2.77;2.47;;;;;;;4.35;65.99;100839.52;1789941;80;21347;-41
2021/05/05 00:05:53;;;;;;;7.47;3.22;;;;;;;4.33;65.72;100843.77;1789909;80;21078;-40
2021/05/05 00:08:21;;;;;;;28.62;3.45;;;;;;;4.33;66.22;100854.02;1789907;80;21095;-41
2021/05/05 00:10:48;;;;;;;22.95;3.45;;;;;;;4.30;65.94;100846.73;1789886;80;20999;-41
2021/05/05 00:13:16;;;;;;;23.55;3.08;;;;;;;4.35;65.80;100856.19;1789954;80;20900;-40
2021/05/05 00:15:44;;;;;;;8.93;2.83;;;;;;;4.31;65.69;100841.20;1789966;80;21359;-40
2021/05/05 00:18:12;;;;;;;7.50;2.80;;;;;;;4.29;65.71;100852.70;1789940;80;21157;-40
2021/05/05 00:20:40;;;;;;;3.80;2.40;;;;;;;4.30;65.55;100854.86;1789846;80;21392;-41
2021/05/05 00:23:08;;;;;;;6.58;2.10;;;;;;;4.34;65.51;100844.21;1789893;80;21044;-40
2021/05/05 00:25:36;;;;;;;6.33;2.05;;;;;;;4.35;65.17;100836.95;1789935;80;20980;-41
2021/05/05 00:28:04;;;;;;;4.95;2.45;;;;;;;4.40;64.55;100841.31;1789943;80;21387;-41
2021/05/05 00:30:32;;;;;;;3.75;2.42;;;;;;;4.46;64.44;100844.39;1789864;80;21043;-40
2021/05/05 00:33:00;;;;;;;18.42;3.52;;;;;;;4.52;63.93;100843.58;1789888;80;21004;-40
2021/05/05 00:35:28;;;;;;;6.75;2.35;;;;;;;4.55;63.83;100844.49;1789904;80;20944;-40
2021/05/05 00:37:56;;;;;;;16.23;2.67;;;;;;;4.54;63.53;100850.47;1789939;80;21126;-40
2021/05/05 00:42:36;;;;;;;7.42;2.17;;;;;;;4.64;63.84;100841.59;1776888;79;23112;-40
2021/05/05 00:45:10;;;;;;;5.10;2.00;;;;;;;4.59;64.04;100845.41;1749477;82;21015;-39
2021/05/05 00:47:39;;;;;;;3.40;2.25;;;;;;;4.55;64.14;100849.63;1749566;82;22273;-40
2021/05/05 00:50:10;;;;;;;2.67;2.37;;;;;;;4.55;64.08;100852.19;1749302;81;21568;-40
2021/05/05 00:52:38;;;;;;;3.90;2.12;;;;;;;4.53;64.00;100846.59;1749481;82;21654;-40
2021/05/05 00:55:08;;;;;;;6.17;2.20;;;;;;;4.50;64.07;100835.89;1749392;81;20955;-40
2021/05/05 00:57:37;;;;;;;5.55;2.17;;;;;;;4.49;63.62;100843.14;1749493;82;20942;-40
2021/05/05 01:00:07;;;;;;;4.75;2.15;;;;;;;4.53;63.19;100842.34;1749386;82;21953;-40
2021/05/05 01:02:34;;;;;;;3.37;2.05;;;;;;;4.55;62.87;100843.21;1749421;82;20955;-40
2021/05/05 01:05:06;;;;;;;2.70;2.10;;;;;;;4.58;62.78;100832.99;1749475;82;20963;-40
2021/05/05 01:07:35;;;;;;;4.25;2.22;;;;;;;4.58;62.62;100838.13;1749385;81;20999;-40
2021/05/05 01:10:08;;;;;;;2.65;1.70;;;;;;;4.57;62.70;100835.12;1749457;82;20923;-40
2021/05/05 01:12:35;;;;;;;2.50;2.05;;;;;;;4.58;62.53;100832.99;1749429;82;21338;-40
2021/05/05 01:15:06;;;;;;;3.72;2.20;;;;;;;4.57;62.48;100828.70;1749341;82;20999;-41
2021/05/05 01:17:35;;;;;;;3.05;2.22;;;;;;;4.64;62.33;100829.65;1749406;82;20959;-40
2021/05/05 01:20:08;;;;;;;3.30;2.47;;;;;;;4.64;62.48;100828.37;1749369;82;20896;-40
2021/05/05 01:22:36;;;;;;;2.47;2.10;;;;;;;4.60;62.57;100824.89;1749376;80;21023;-40
2021/05/05 01:25:06;;;;;;;5.92;2.05;;;;;;;4.55;62.94;100823.98;1749453;82;22150;-40
2021/05/05 01:27:34;;;;;;;2.92;2.02;;;;;;;4.49;63.43;100825.20;1749405;82;20994;-40
2021/05/05 01:30:05;;;;;;;3.52;3.00;;;;;;;4.44;63.67;100822.56;1749361;82;21027;-41
2021/05/05 01:32:32;;;;;;;3.58;2.87;;;;;;;4.42;63.83;100827.22;1749341;82;21027;-41
2021/05/05 01:35:00;;;;;;;6.33;2.52;;;;;;;4.44;63.68;100829.41;1749356;82;21583;-41
2021/05/05 01:37:28;;;;;;;2.75;2.02;;;;;;;4.46;63.63;100826.45;1723120;82;22222;-41
2021/05/05 01:39:56;;;;;;;3.60;2.33;;;;;;;4.45;63.67;100833.26;1719487;83;20979;-41
2021/05/05 01:42:24;;;;;;;3.77;2.08;;;;;;;4.43;63.89;100828.53;1720073;83;21022;-41
2021/05/05 01:44:52;;;;;;;10.65;3.08;;;;;;;4.40;63.92;100826.34;1720263;83;21014;-40
2021/05/05 01:47:20;;;;;;;9.85;2.12;;;;;;;4.36;63.90;100827.14;1720307;83;21019;-41
2021/05/05 01:49:49;;;;;;;2.55;2.35;;;;;;;4.29;64.24;100824.51;1720383;82;21370;-41
2021/05/05 01:52:19;;;;;;;19.57;3.30;;;;;;;4.23;64.51;100823.56;1720150;82;20980;-41
2021/05/05 01:54:47;;;;;;;53.90;5.42;;;;;;;4.11;64.96;100826.81;1719863;83;21651;-41
2021/05/05 01:57:32;;;;;;;57.53;5.67;;;;;;;3.97;65.52;100833.89;1719761;82;20959;-41
2021/05/05 02:00:08;;;;;;;55.75;5.70;;;;;;;3.84;65.86;100828.12;1720001;83;21098;-41
2021/05/05 02:02:37;;;;;;;;;;;;;;;3.72;66.20;100830.95;1721114;83;21376;-39
2021/05/05 02:05:06;;;;;;;48.25;5.78;;;;;;;3.63;66.51;100823.55;1719725;83;20135;-39
2021/05/05 02:07:37;;;;;;;51.77;6.47;;;;;;;3.55;66.85;100825.97;1717291;83;20963;-40
2021/05/05 02:10:08;;;;;;;91.95;8.63;;;;;;;3.44;67.60;100824.11;1719686;83;21097;-40
2021/05/05 02:12:35;;;;;;;90.97;8.35;;;;;;;3.35;67.79;100826.49;1719884;83;20930;-40
2021/05/05 02:15:07;;;;;;;117.60;9.05;;;;;;;3.26;68.21;100826.34;1719713;82;21085;-40
2021/05/05 02:17:36;;;;;;;89.42;9.28;;;;;;;3.20;68.47;100823.69;1719714;83;21010;-40
2021/05/05 02:20:08;;;;;;;65.30;6.45;;;;;;;3.17;68.65;100824.48;1719720;83;20955;-40
2021/05/05 02:22:36;;;;;;;66.30;6.17;;;;;;;3.16;69.87;100826.19;1719276;83;21572;-40
2021/05/05 02:25:05;;;;;;;17.45;3.80;;;;;;;3.14;70.84;100823.99;1719829;83;21648;-40
2021/05/05 02:27:33;;;;;;;16.45;3.95;;;;;;;3.18;70.77;100827.91;1719782;83;21380;-40
2021/05/05 02:30:02;;;;;;;8.05;3.10;;;;;;;3.24;70.55;100828.02;1693614;83;21620;-40
2021/05/05 02:32:31;;;;;;;8.45;2.92;;;;;;;3.36;70.25;100823.09;1718604;83;21050;-40
2021/05/05 02:35:00;;;;;;;15.65;3.27;;;;;;;3.45;69.83;100821.98;1693094;83;21117;-41
2021/05/05 02:37:28;;;;;;;9.33;2.87;;;;;;;3.55;69.59;100820.85;1719837;82;21038;-40
2021/05/05 02:39:56;;;;;;;7.75;2.98;;;;;;;3.65;69.52;100826.98;1719848;83;21275;-40
2021/05/05 02:42:27;;;;;;;9.48;2.87;;;;;;;3.72;69.29;100826.23;1710272;83;21030;-40
2021/05/05 02:44:54;;;;;;;9.23;3.17;;;;;;;3.78;69.22;100828.05;1706225;84;20999;-40
2021/05/05 02:47:22;;;;;;;29.50;4.47;;;;;;;3.82;69.13;100828.52;1706133;84;20956;-40
2021/05/05 02:49:51;;;;;;;58.05;6.20;;;;;;;3.84;69.57;100822.60;1706241;84;21561;-40
2021/05/05 02:52:19;;;;;;;43.87;5.05;;;;;;;3.87;70.19;100829.05;1706268;84;21387;-40
2021/05/05 02:54:48;;;;;;;33.80;4.17;;;;;;;3.87;70.49;100827.77;1706141;84;20987;-40
2021/05/05 02:57:16;;;;;;;20.10;3.90;;;;;;;3.88;70.78;100824.37;1706249;84;21042;-40
2021/05/05 02:59:45;;;;;;;17.00;3.83;;;;;;;3.93;70.87;100832.12;1706187;84;21007;-40
2021/05/05 03:02:12;;;;;;;15.38;3.47;;;;;;;3.97;70.90;100840.30;1706150;83;21596;-45
2021/05/05 03:04:40;;;;;;;20.37;3.40;;;;;;;4.01;70.87;100839.91;1706145;84;21393;-40
2021/05/05 03:07:08;;;;;;;14.80;3.75;;;;;;;4.09;70.71;100830.65;1706254;83;21082;-40
2021/05/05 03:09:36;;;;;;;17.40;3.37;;;;;;;4.16;70.57;100827.73;1706222;84;20964;-40
2021/05/05 03:12:05;;;;;;;16.77;3.58;;;;;;;4.20;70.46;100835.93;1706139;83;21035;-40
2021/05/05 03:14:32;;;;;;;9.80;3.10;;;;;;;4.27;70.20;100835.16;1706260;84;20978;-40
2021/05/05 03:17:01;;;;;;;4.15;2.70;;;;;;;4.43;69.36;100830.25;1706211;84;21393;-39
2021/05/05 03:19:29;;;;;;;10.58;2.72;;;;;;;4.66;68.33;100837.34;1706089;84;21102;-41
2021/05/05 03:21:56;;;;;;;2.60;2.40;;;;;;;4.86;67.57;100832.03;1706141;84;20909;-40
2021/05/05 03:24:25;;;;;;;6.08;3.15;;;;;;;5.02;67.07;100830.92;1706134;84;21043;-41
2021/05/05 03:26:53;;;;;;;10.55;3.05;;;;;;;5.15;66.33;100834.04;1706179;82;21122;-40
2021/05/05 03:29:20;;;;;;;6.30;2.87;;;;;;;5.32;65.64;100828.22;1706189;84;21439;-40
2021/05/05 03:31:48;;;;;;;5.65;2.40;;;;;;;5.47;64.93;100821.07;1706131;84;20920;-40
2021/05/05 03:34:16;;;;;;;6.87;3.10;;;;;;;5.60;64.32;100824.60;1706145;84;20999;-41
2021/05/05 03:36:45;;;;;;;4.90;2.60;;;;;;;5.76;64.19;100829.43;1706109;82;21050;-41
2021/05/05 03:39:13;;;;;;;8.73;2.83;;;;;;;6.13;63.63;100828.44;1706311;83;21830;-41
2021/05/05 03:41:42;;;;;;;5.30;2.47;;;;;;;6.13;63.63;100828.44;1709489;83;21030;-41
2021/05/05 03:44:10;;;;;;;8.75;3.40;;;;;;;6.41;63.30;100828.99;1719608;83;21002;-41
2021/05/05 03:46:38;;;;;;;4.60;2.75;;;;;;;6.69;62.91;100822.27;1719674;82;20943;-40
2021/05/05 03:49:07;;;;;;;6.83;3.00;;;;;;;6.97;62.25;100825.36;1719657;83;20928;-40
2021/05/05 03:51:34;;;;;;;6.55;2.95;;;;;;;7.23;61.55;100829.25;1719713;83;20948;-40
2021/05/05 03:54:02;;;;;;;4.97;2.72;;;;;;;7.46;61.19;100819.41;1719625;82;21261;-40
2021/05/05 03:56:30;;;;;;;3.55;2.72;;;;;;;7.66;61.20;100818.10;1719606;83;21018;-41
2021/05/05 03:58:58;;;;;;;8.33;2.90;;;;;;;7.91;60.64;100821.94;1719656;83;21003;-41
2021/05/05 04:01:26;;;;;;;9.53;3.25;;;;;;;8.13;60.17;100820.61;1719649;83;21039;-40
2021/05/05 04:03:53;;;;;;;7.20;3.50;;;;;;;8.34;60.19;100818.43;1719694;83;20967;-41
2021/05/05 04:06:22;;;;;;;4.25;3.05;;;;;;;8.52;59.82;100811.08;1719726;83;21208;-41
2021/05/05 04:08:51;;;;;;;6.10;3.27;;;;;;;8.66;59.46;100812.30;1719591;83;20974;-41
2021/05/05 04:11:19;;;;;;;8.88;4.00;;;;;;;8.74;59.48;100816.98;1719655;83;21006;-41
2021/05/05 04:13:48;;;;;;;11.30;3.83;;;;;;;8.86;59.28;100814.77;1719706;83;20907;-41
2021/05/05 04:16:34;;;;;;;;;;;;;;;8.99;59.55;100826.34;1722280;83;21058;-41
2021/05/05 04:19:20;;;;;;;6.17;2.92;;;;;;;9.17;59.42;100815.02;1719714;83;21438;-41
2021/05/05 04:22:06;;;;;;;7.40;2.58;;;;;;;9.30;59.43;100807.59;1719691;82;20923;-41
2021/05/05 04:24:52;;;;;;;4.75;2.85;;;;;;;9.48;59.52;100818.25;1719769;83;20967;-40
2021/05/05 04:27:20;;;;;;;3.67;2.85;;;;;;;9.62;59.38;100816.83;1719610;83;21010;-40
2021/05/05 04:29:47;;;;;;;4.62;2.83;;;;;;;9.75;58.92;100822.75;1719799;83;20999;-40
2021/05/05 04:32:15;;;;;;;10.15;2.55;;;;;;;9.86;59.02;100816.19;1719736;82;21384;-40
2021/05/05 04:34:43;;;;;;;6.67;2.90;;;;;;;9.95;58.83;100822.97;1719547;82;21015;-40
2021/05/05 04:37:10;;;;;;;7.70;3.15;;;;;;;10.06;58.48;100821.16;1719609;82;21018;-40
2021/05/05 04:39:39;;;;;;;5.17;2.50;;;;;;;10.20;58.38;100822.30;1719614;83;21077;-42
2021/05/05 04:42:10;;;;;;;4.53;2.33;;;;;;;10.32;58.17;100821.30;1715943;83;21067;-40
2021/05/05 04:44:38;;;;;;;4.33;2.50;;;;;;;10.49;58.10;100827.59;1706162;83;21947;-40
2021/05/05 04:47:06;;;;;;;4.55;2.58;;;;;;;10.69;57.53;100822.61;1706121;84;20955;-40
2021/05/05 04:49:33;;;;;;;2.50;2.30;;;;;;;10.86;57.17;100828.86;1706144;84;20996;-40
2021/05/05 04:52:01;;;;;;;4.78;2.45;;;;;;;11.02;56.91;100825.61;1706132;84;20951;-40
2021/05/05 04:54:28;;;;;;;3.98;1.92;;;;;;;11.20;56.24;100823.18;1706163;84;21383;-40
2021/05/05 04:56:56;;;;;;;5.40;2.30;;;;;;;11.33;55.71;100821.25;1706108;84;21383;-40
2021/05/05 04:59:24;;;;;;;3.27;2.70;;;;;;;11.54;55.94;100814.47;1706019;84;20967;-40
2021/05/05 05:01:51;;;;;;;3.08;2.27;;;;;;;11.70;55.12;100815.91;1706048;84;21048;-40
2021/05/05 05:04:19;;;;;;;2.08;1.85;;;;;;;11.75;54.70;100810.22;1706108;82;21066;-40
2021/05/05 05:06:47;;;;;;;4.10;2.37;;;;;;;11.92;54.38;100811.63;1706074;84;20971;-40
2021/05/05 05:09:15;;;;;;;6.22;2.58;;;;;;;12.12;54.47;100811.28;1706122;84;21165;-40
2021/05/05 05:11:44;;;;;;;3.95;1.90;;;;;;;12.35;54.26;100809.98;1706031;83;21004;-41
2021/05/05 05:14:11;;;;;;;5.05;2.27;;;;;;;12.54;53.65;100810.91;1706087;84;20971;-40
2021/05/05 05:16:40;;;;;;;6.90;2.00;;;;;;;12.61;52.87;100808.16;1706153;82;21054;-40
2021/05/05 05:19:08;;;;;;;5.78;1.95;;;;;;;12.67;52.60;100805.88;1706135;84;21075;-40
2021/05/05 05:21:36;;;;;;;2.60;2.08;;;;;;;12.68;52.08;100807.59;1706070;84;21295;-40
2021/05/05 05:24:06;;;;;;;5.55;2.42;;;;;;;12.80;52.56;100802.56;1706026;84;20916;-40
2021/05/05 05:26:34;;;;;;;7.35;2.22;;;;;;;12.96;52.60;100804.80;1706136;82;21198;-40
2021/05/05 05:32:00;;;;;;;3.30;2.10;;;;;;;13.50;52.04;100808.76;1640780;81;21193;-41
2021/05/05 05:34:27;;;;;;;2.85;1.67;;;;;;;13.70;50.75;100804.80;1666505;85;21223;-41
2021/05/05 05:36:55;;;;;;;10.25;2.30;;;;;;;13.75;50.44;100805.07;1659088;86;21069;-41
2021/05/05 05:39:23;;;;;;;2.08;1.80;;;;;;;13.74;50.35;100802.53;1666416;84;21186;-41
2021/05/05 05:41:52;;;;;;;3.08;1.92;;;;;;;13.64;50.67;100801.91;1658505;85;21069;-41
2021/05/05 05:44:20;;;;;;;5.85;1.90;;;;;;;13.55;50.90;100795.66;1666437;86;21167;-41
2021/05/05 05:46:47;;;;;;;5.33;2.17;;;;;;;13.50;50.86;100794.45;1659155;86;21341;-41
2021/05/05 05:49:15;;;;;;;7.72;2.00;;;;;;;13.60;51.70;100797.68;1666140;84;21136;-41
2021/05/05 05:51:43;;;;;;;4.15;1.60;;;;;;;13.64;51.66;100800.61;1659068;86;20962;-41
2021/05/05 05:54:11;;;;;;;5.40;1.65;;;;;;;13.73;51.70;100797.75;1666356;86;20998;-41
2021/05/05 05:56:40;;;;;;;7.62;1.40;;;;;;;13.83;50.71;100792.33;1667779;85;21194;-41
2021/05/05 05:59:07;;;;;;;5.97;1.60;;;;;;;13.88;51.84;100793.05;1678378;84;21367;-41
2021/05/05 06:01:35;;;;;;;4.83;1.75;;;;;;;14.11;51.40;100790.27;1678278;84;21114;-41
2021/05/05 06:04:04;;;;;;;1.35;1.25;;;;;;;14.24;50.57;100789.02;1678306;85;21002;-41
2021/05/05 06:06:31;;;;;;;4.50;1.30;;;;;;;14.25;50.97;100788.11;1678280;84;21010;-41
2021/05/05 06:08:59;;;;;;;7.90;1.35;;;;;;;14.39;50.09;100791.62;1678274;85;20959;-41
2021/05/05 06:11:27;;;;;;;4.30;1.82;;;;;;;14.49;49.90;100794.38;1678319;84;21511;-41
2021/05/05 06:13:54;;;;;;;3.02;1.20;;;;;;;14.40;48.70;100794.66;1678222;84;21113;-41
2021/05/05 06:16:22;;;;;;;2.47;1.05;;;;;;;14.39;48.83;100801.20;1678290;85;21055;-41
2021/05/05 06:18:49;;;;;;;5.62;1.40;;;;;;;14.43;47.74;100807.59;1678348;84;20932;-41
2021/05/05 06:21:17;;;;;;;9.65;1.80;;;;;;;14.60;46.90;100794.06;1678376;84;21090;-41
2021/05/05 06:23:45;;;;;;;3.15;1.40;;;;;;;14.58;45.51;100799.77;1678343;84;23243;-41
2021/05/05 06:26:12;;;;;;;11.78;2.37;;;;;;;14.39;46.82;100800.73;1678272;85;21039;-41
2021/05/05 06:28:40;;;;;;;4.03;1.02;;;;;;;14.42;45.80;100800.67;1678289;85;20981;-41
2021/05/05 06:31:08;;;;;;;3.60;1.55;;;;;;;14.60;44.80;100807.09;1678499;85;21149;-41
2021/05/05 06:33:35;;;;;;;12.73;1.98;;;;;;;14.69;44.10;100795.98;1660148;86;21074;-41
2021/05/05 06:36:05;;;;;;;9.63;1.47;;;;;;;14.64;43.73;100804.80;1660092;85;21220;-41
2021/05/05 06:38:33;;;;;;;8.58;1.20;;;;;;;14.68;42.62;100800.35;1660102;86;21007;-41
2021/05/05 06:41:01;;;;;;;2.60;1.25;;;;;;;14.76;41.48;100798.83;1660165;86;20952;-41
2021/05/05 06:43:28;;;;;;;4.10;0.90;;;;;;;14.88;41.96;100805.41;1660129;85;21039;-41
2021/05/05 06:45:56;;;;;;;1.55;0.95;;;;;;;15.01;42.94;100799.37;1660106;86;21269;-41
2021/05/05 06:48:24;;;;;;;26.12;1.80;;;;;;;15.31;41.37;100794.09;1660125;86;21380;-41
2021/05/05 06:50:51;;;;;;;27.30;1.55;;;;;;;15.50;39.46;100798.23;1660063;86;20973;-41
2021/05/05 06:53:19;;;;;;;13.58;1.22;;;;;;;15.62;39.70;100802.19;1660169;86;21051;-41
2021/05/05 06:55:47;;;;;;;7.72;1.25;;;;;;;15.55;38.93;100802.84;1660103;85;21038;-41
2021/05/05 06:58:18;;;;;;;8.83;1.25;;;;;;;15.45;39.46;100804.07;1660134;86;21118;-41
2021/05/05 07:00:45;;;;;;;7.75;1.20;;;;;;;15.40;38.71;100803.34;1660050;85;21389;-41
2021/05/05 07:03:13;;;;;;;3.67;1.55;;;;;;;15.28;39.08;100807.20;1660016;86;21043;-41
2021/05/05 07:05:40;;;;;;;13.95;1.65;;;;;;;14.92;39.95;100815.70;1660108;86;20971;-41
2021/05/05 07:08:08;;;;;;;9.20;1.40;;;;;;;14.77;39.35;100805.73;1660064;85;21035;-41
2021/05/05 07:10:35;;;;;;;12.00;1.60;;;;;;;14.60;38.98;100806.22;1660136;86;21011;-41
2021/05/05 07:13:05;;;;;;;7.62;1.27;;;;;;;14.43;39.25;100801.08;1660044;85;20996;-41
2021/05/05 07:15:33;;;;;;;13.32;1.67;;;;;;;14.34;39.71;100801.33;1660058;85;20988;-41
2021/05/05 07:18:00;;;;;;;4.97;0.95;;;;;;;14.31;40.01;100798.38;1660010;86;21039;-41
2021/05/05 07:20:28;;;;;;;14.18;1.72;;;;;;;14.44;39.99;100796.70;1660055;85;20937;-41
2021/05/05 07:22:57;;;;;;;19.40;1.55;;;;;;;14.54;39.97;100789.05;1660046;86;21012;-41
2021/05/05 07:25:24;;;;;;;6.65;1.17;;;;;;;14.60;39.28;100781.47;1660144;85;21561;-41
2021/05/05 07:27:52;;;;;;;9.08;1.70;;;;;;;14.64;39.40;100781.34;1660071;85;21035;-41
2021/05/05 07:30:21;;;;;;;1.10;1.02;;;;;;;14.85;40.77;100776.41;1660147;85;21051;-41
2021/05/05 07:32:48;;;;;;;9.10;0.90;;;;;;;15.18;39.22;100769.70;1661913;86;20936;-41
2021/05/05 07:35:18;;;;;;;5.78;0.82;;;;;;;15.48;39.40;100765.67;1662029;86;20999;-42
2021/05/05 07:40:58;;;;;;;20.88;1.20;;;;;;;16.29;38.12;100752.86;1695546;84;21053;-41
2021/05/05 07:48:11;;;;;;;18.32;1.47;;;;;;;16.66;35.93;100743.59;1662040;85;21126;-41
2021/05/05 07:50:38;;;;;;;39.13;3.02;;;;;;;16.76;34.44;100741.47;1695566;84;22229;-42
2021/05/05 07:53:06;;;;;;;19.95;1.62;;;;;;;16.81;36.51;100748.23;1695556;83;21030;-41
2021/05/05 07:55:33;;;;;;;22.55;2.33;;;;;;;16.90;36.21;100746.14;1695641;83;21006;-41
2021/05/05 07:58:00;;;;;;;23.12;1.60;;;;;;;17.08;36.39;100745.91;1661970;85;20956;-42
2021/05/05 08:00:27;;;;;;;6.33;1.07;;;;;;;17.19;33.49;100745.47;1695617;83;21010;-42
2021/05/05 08:02:54;;;;;;;8.63;1.40;;;;;;;17.18;33.90;100745.91;1661944;86;21349;-42
2021/05/05 08:05:22;;;;;;;24.80;2.10;;;;;;;17.24;34.45;100732.56;1661942;86;21032;-42
2021/05/05 08:07:53;;;;;;;18.37;1.60;;;;;;;17.22;34.39;100731.78;1662086;86;20952;-42
2021/05/05 08:10:22;;;;;;;25.57;1.98;;;;;;;17.42;34.89;100727.92;1695519;84;20978;-42
2021/05/05 08:12:49;;;;;;;8.05;1.10;;;;;;;17.52;33.81;100734.00;1662025;86;21082;-42
2021/05/05 08:15:17;;;;;;;35.45;2.17;;;;;;;17.57;34.52;100729.05;1662036;86;21497;-42
2021/05/05 08:17:46;;;;;;;14.18;2.05;;;;;;;17.62;32.69;100721.37;1695489;83;21010;-42
2021/05/05 08:20:14;;;;;;;36.98;1.95;;;;;;;17.63;32.32;100718.31;1662019;86;20949;-42
2021/05/05 08:22:42;;;;;;;25.68;1.50;;;;;;;17.72;34.37;100720.52;1661885;86;21011;-42
2021/05/05 08:25:11;;;;;;;19.62;1.95;;;;;;;17.95;33.43;100726.49;1695549;83;21100;-42
2021/05/05 08:27:39;;;;;;;22.35;1.55;;;;;;;18.01;33.02;100714.45;1661982;85;21365;-42
2021/05/05 08:30:09;;;;;;;37.10;2.35;;;;;;;18.11;33.46;100721.91;1695555;84;21013;-42
2021/05/05 08:32:36;;;;;;;60.17;3.25;;;;;;;18.19;34.45;100725.02;1661927;86;20957;-42
2021/05/05 08:35:06;;;;;;;91.82;4.12;;;;;;;18.18;32.54;100712.84;1662055;86;21007;-42
2021/05/05 08:37:34;;;;;;;18.12;1.35;;;;;;;18.22;32.87;100717.88;1695556;84;21550;-42
2021/05/05 08:40:03;;;;;;;75.12;4.17;;;;;;;18.24;33.30;100709.48;1695550;83;21207;-42
2021/05/05 08:42:31;;;;;;;63.63;2.90;;;;;;;18.30;33.39;100697.84;1661923;85;21840;-42
2021/05/05 08:44:59;;;;;;;7.95;1.02;;;;;;;18.15;33.60;100706.44;1695656;83;20951;-42
2021/05/05 08:47:28;;;;;;;33.92;2.20;;;;;;;18.21;34.62;100710.94;1661926;85;21039;-43
2021/05/05 08:49:58;;;;;;;21.55;2.22;;;;;;;18.50;33.93;100714.39;1695519;84;20951;-42
2021/05/05 08:52:25;;;;;;;25.02;1.70;;;;;;;18.86;35.24;100707.00;1661942;85;21340;-43
2021/05/05 08:54:53;;;;;;;49.05;2.58;;;;;;;19.08;33.55;100705.48;1661887;86;21048;-42
2021/05/05 08:57:22;;;;;;;17.50;1.35;;;;;;;19.12;34.76;100704.88;1661992;85;20996;-43
2021/05/05 08:59:49;;;;;;;14.38;1.98;;;;;;;19.29;34.09;100705.33;1661949;86;20976;-42
2021/05/05 09:02:18;;;;;;;14.53;1.40;;;;;;;19.45;32.63;100695.34;1695490;83;21010;-43
2021/05/05 09:05:03;;;;;;;5.72;1.30;;;;;;;19.21;32.93;100699.16;1662127;85;21378;-42
2021/05/05 09:07:33;;;;;;;28.95;1.62;;;;;;;19.12;33.91;100686.52;1695713;83;21073;-42
2021/05/05 09:10:17;;;;;;;8.63;1.00;;;;;;;19.24;33.84;100691.13;1695690;83;21590;-42
2021/05/05 09:12:51;;;;;;;15.05;1.75;;;;;;;19.25;33.89;100690.67;1662106;86;21611;-41
2021/05/05 09:15:28;;;;;;;12.63;1.85;;;;;;;19.19;33.59;100690.97;1695695;83;21144;-42
2021/05/05 09:17:57;;;;;;;18.52;1.30;;;;;;;19.28;34.79;100684.41;1695751;84;21406;-42
2021/05/05 09:20:32;;;;;;;44.15;2.50;;;;;;;19.48;33.97;100672.89;1695661;84;21053;-42
2021/05/05 09:23:04;;;;;;;26.00;1.90;;;;;;;19.53;34.05;100675.63;1662184;85;21173;-42
2021/05/05 09:25:37;;;;;;;33.25;1.37;;;;;;;19.56;33.65;100667.21;1662064;85;21019;-42
2021/05/05 09:28:22;;;;;;;12.85;1.60;;;;;;;19.55;34.63;100674.25;1695760;83;21578;-42
2021/05/05 09:30:54;;;;;;;39.15;2.92;;;;;;;19.66;35.30;100664.50;1662033;86;22204;-42
2021/05/05 09:33:31;;;;;;;9.15;1.22;;;;;;;19.94;34.22;100669.60;1684194;83;21066;-42
2021/05/05 09:36:01;;;;;;;18.52;1.62;;;;;;;20.07;35.07;100663.20;1682742;83;20967;-42
2021/05/05 09:38:46;;;;;;;6.40;0.98;;;;;;;20.17;34.94;100653.87;1640282;86;21699;-42
2021/05/05 09:41:20;;;;;;;3.80;1.00;;;;;;;20.27;33.24;100649.44;1683013;85;20942;-42
2021/05/05 09:43:49;;;;;;;11.30;1.25;;;;;;;20.35;34.04;100637.56;1683035;83;22288;-42
2021/05/05 09:46:46;;;;;;;22.52;1.67;;;;;;;20.31;33.38;100639.95;1682759;85;21638;-43
2021/05/05 09:49:35;;;;;;;12.15;1.32;;;;;;;20.31;33.74;100638.64;1682722;85;21642;-43
2021/05/05 09:52:10;;;;;;;8.88;2.05;;;;;;;20.46;32.88;100641.34;1640176;85;21201;-42
2021/05/05 09:54:41;;;;;;;12.65;1.62;;;;;;;20.64;32.88;100628.46;1682772;83;21042;-42
2021/05/05 09:57:19;;;;;;;6.37;1.30;;;;;;;20.64;34.05;100632.41;1640219;86;21249;-42
2021/05/05 10:00:06;;;;;;;4.95;0.88;;;;;;;20.90;32.76;100626.11;1682724;85;21063;-42
2021/05/05 10:02:47;;;;;;;16.42;1.65;;;;;;;21.04;32.67;100624.42;1640224;87;20963;-42
2021/05/05 10:05:18;;;;;;;60.78;3.17;;;;;;;21.05;32.68;100624.80;1682830;84;22399;-43
2021/05/05 10:07:55;;;;;;;59.40;2.70;;;;;;;20.96;32.92;100624.42;1640233;86;21067;-41
2021/05/05 10:10:27;;;;;;;25.57;1.67;;;;;;;21.15;34.32;100619.83;1682839;85;21372;-41
2021/05/05 10:12:56;;;;;;;25.15;1.75;;;;;;;21.56;32.94;100613.83;1681962;85;21066;-41
2021/05/05 10:15:31;;;;;;;45.35;3.37;;;;;;;21.68;30.49;100603.02;1682687;83;20951;-43
2021/05/05 10:17:58;;;;;;;46.28;2.25;;;;;;;21.45;31.99;100614.48;1640119;87;20936;-43
2021/05/05 10:20:31;;;;;;;50.20;2.95;;;;;;;21.50;32.16;100613.73;1682754;85;21150;-43
2021/05/05 10:23:03;;;;;;;39.10;2.42;;;;;;;21.50;31.83;100611.09;1640313;86;21387;-42
2021/05/05 10:25:31;;;;;;;27.15;1.60;;;;;;;21.52;31.79;100607.89;1682737;83;21117;-42
2021/05/05 10:27:59;;;;;;;60.15;2.80;;;;;;;21.58;32.37;100600.55;1640186;85;21027;-42
2021/05/05 10:30:30;;;;;;;30.10;2.12;;;;;;;21.70;32.01;100602.45;1682675;83;21153;-42
2021/05/05 10:33:01;;;;;;;32.48;2.55;;;;;;;21.86;31.39;100581.25;1679758;84;21169;-42
2021/05/05 10:35:28;;;;;;;40.95;2.58;;;;;;;21.94;30.76;100586.03;1640276;87;22677;-42
2021/05/05 10:38:00;;;;;;;77.80;4.00;;;;;;;22.09;30.21;100594.24;1682693;83;21034;-42
2021/05/05 10:40:36;;;;;;;49.88;2.80;;;;;;;21.96;30.91;100592.87;1682679;85;21046;-42
2021/05/05 10:43:06;;;;;;;56.08;3.20;;;;;;;21.80;30.39;100592.19;1640311;86;21118;-42
2021/05/05 10:45:41;;;;;;;35.88;2.12;;;;;;;21.51;31.24;100586.45;1682709;85;20963;-43
2021/05/05 10:48:17;;;;;;;12.07;1.15;;;;;;;21.57;31.25;100587.00;1640134;85;21374;-42
2021/05/05 10:50:54;;;;;;;22.42;2.05;;;;;;;21.81;31.68;100583.34;1682618;85;20963;-42
2021/05/05 10:53:30;;;;;;;36.65;2.90;;;;;;;21.97;31.37;100575.28;1640155;87;21048;-42
2021/05/05 10:55:59;;;;;;;;;;;;;;;21.82;31.26;100583.22;1681598;83;21114;-42
2021/05/05 10:58:31;;;;;;;45.65;2.10;;;;;;;21.60;31.76;100571.01;1682838;85;20155;-43
2021/05/05 11:01:07;;;;;;;51.50;2.85;;;;;;;21.85;32.96;100568.16;1640210;85;21369;-42
2021/05/05 11:03:46;;;;;;;64.58;3.80;;;;;;;22.05;31.36;100571.67;1682563;85;20975;-42
2021/05/05 11:06:39;;;;;;;65.80;3.98;;;;;;;21.84;31.51;100579.19;1682717;85;20955;-42
2021/05/05 11:09:17;;;;;;;39.75;2.20;;;;;;;21.47;31.81;100567.84;1640208;86;21587;-42
2021/05/05 11:11:48;;;;;;;17.42;1.30;;;;;;;21.51;32.74;100565.39;1682778;85;21298;-42
2021/05/05 11:14:31;;;;;;;21.65;1.82;;;;;;;21.91;31.69;100564.66;1640160;87;21205;-43
2021/05/05 11:17:02;;;;;;;16.48;1.60;;;;;;;22.16;32.32;100568.33;1682715;83;21022;-42
2021/05/05 11:19:43;;;;;;;5.80;1.30;;;;;;;22.13;31.07;100571.17;1640217;86;21046;-42
2021/05/05 11:22:32;;;;;;;12.40;1.37;;;;;;;22.08;30.93;100566.20;1682696;85;21059;-42
2021/05/05 11:25:19;;;;;;;32.78;2.22;;;;;;;22.24;31.52;100557.30;1682605;84;20964;-42
2021/05/05 11:27:51;;;;;;;100.60;4.40;;;;;;;22.19;31.13;100552.80;1659338;83;22175;-42
2021/05/05 11:30:40;;;;;;;43.73;2.47;;;;;;;21.92;31.77;100560.25;1682707;83;21735;-42
2021/05/05 11:33:10;;;;;;;34.50;2.47;;;;;;;21.71;31.60;100562.00;1682605;84;20956;-42
2021/05/05 11:35:38;;;;;;;48.55;2.95;;;;;;;21.69;32.79;100566.52;1682631;83;20962;-42
2021/05/05 11:38:19;;;;;;;46.37;2.75;;;;;;;21.99;32.96;100557.59;1682688;85;20967;-42
2021/05/05 11:41:00;;;;;;;39.10;2.52;;;;;;;22.05;31.35;100560.30;1682629;85;21314;-42
2021/05/05 11:43:31;;;;;;;13.35;1.40;;;;;;;22.06;31.52;100558.04;1681573;85;21055;-43
2021/05/05 11:46:02;;;;;;;34.90;1.80;;;;;;;22.20;30.45;100548.73;1640167;87;20952;-42
2021/05/05 11:48:36;;;;;;;30.92;2.40;;;;;;;22.12;30.53;100548.89;1682602;83;21050;-42
2021/05/05 11:51:18;;;;;;;43.92;2.40;;;;;;;21.74;31.79;100539.90;1640144;85;21158;-42